createdAt,value
2022-12-18T15:05:05.168Z,102653.97
2022-12-18T15:08:33.170Z,102649.41
2022-12-18T15:11:47.458Z,102648.84
2022-12-18T15:14:51.150Z,102641.88
2022-12-18T15:18:07.657Z,102642.66
2022-12-18T15:21:18.457Z,102627.25
2022-12-18T15:24:29.286Z,102617.88
2022-12-18T15:27:36.635Z,102607.13
2022-12-18T15:30:40.531Z,102602.06
2022-12-18T15:33:47.109Z,102609.28
2022-12-18T15:36:53.990Z,102603.59
2022-12-18T15:39:57.826Z,102604.16
2022-12-18T15:43:18.783Z,102600.50
2022-12-18T15:46:25.611Z,102610.06
2022-12-18T15:49:29.517Z,102594.03
2022-12-18T15:52:43.330Z,102590.94
2022-12-18T15:56:04.954Z,102588.34
2022-12-18T15:59:13.086Z,102574.78
2022-12-18T16:02:20.079Z,102581.72
2022-12-18T16:05:25.076Z,102571.03
2022-12-18T16:08:30.855Z,102576.84
2022-12-18T16:11:43.003Z,102570.53
2022-12-18T16:14:48.370Z,102569.47
2022-12-18T16:17:53.600Z,102576.38
2022-12-18T16:20:57.495Z,102571.63
2022-12-18T16:24:02.777Z,102566.09
2022-12-18T16:27:06.569Z,102548.47
2022-12-18T16:30:15.279Z,102558.38
2022-12-18T16:33:19.083Z,102552.81
2022-12-18T16:36:22.995Z,102544.44
2022-12-18T16:39:28.816Z,102534.38
2022-12-18T16:42:32.661Z,102520.38
2022-12-18T16:45:36.495Z,102530.84
2022-12-18T16:48:40.232Z,102525.47
2022-12-18T16:51:48.166Z,102537.50
2022-12-18T16:54:53.355Z,102533.06
2022-12-18T16:57:57.107Z,102522.19
2022-12-18T17:01:01.028Z,102527.28
2022-12-18T17:04:07.793Z,102531.03
2022-12-18T17:07:11.984Z,102528.91
2022-12-18T17:10:17.295Z,102522.31
2022-12-18T17:13:28.207Z,102520.13
2022-12-18T17:16:32.012Z,102520.97
2022-12-18T17:19:36.791Z,102503.47
2022-12-18T17:22:40.600Z,102502.91
2022-12-18T17:25:46.503Z,102497.03
2022-12-18T17:28:50.239Z,102479.03
2022-12-18T17:31:53.969Z,102494.38
2022-12-18T17:35:02.606Z,102501.56
2022-12-18T17:38:09.480Z,102487.78
2022-12-18T17:41:15.356Z,102495.00
2022-12-18T17:44:19.852Z,102491.03
2022-12-18T17:47:23.655Z,102499.47
2022-12-18T17:50:27.815Z,102498.25
2022-12-18T17:53:31.717Z,102492.75
2022-12-18T17:56:36.959Z,102487.03
2022-12-18T17:59:41.488Z,102495.91
2022-12-18T18:02:45.370Z,102493.47
2022-12-18T18:05:49.257Z,102480.28
2022-12-18T18:08:54.566Z,102472.09
2022-12-18T18:12:17.636Z,102465.16
2022-12-18T18:15:21.523Z,102445.16
2022-12-18T18:18:25.485Z,102435.91
2022-12-18T18:21:30.060Z,102431.22
2022-12-18T18:24:35.102Z,102444.44
2022-12-18T18:27:40.538Z,102429.28
2022-12-18T18:30:44.382Z,102429.81
2022-12-18T18:33:48.398Z,102425.00
2022-12-18T18:36:52.505Z,102427.53
2022-12-18T18:39:56.918Z,102421.22
2022-12-18T18:43:02.283Z,102411.78
2022-12-18T18:46:08.092Z,102410.56
2022-12-18T18:49:11.956Z,102402.09
2022-12-18T18:52:16.651Z,102407.13
2022-12-18T18:55:25.536Z,102400.25
2022-12-18T18:58:31.510Z,102392.75
2022-12-18T19:01:35.359Z,102397.75
2022-12-18T19:04:45.731Z,102385.97
2022-12-18T19:07:49.619Z,102394.16
2022-12-18T19:10:57.655Z,102400.03
2022-12-18T19:14:04.518Z,102381.13
2022-12-18T19:17:09.346Z,102369.16
2022-12-18T19:20:13.405Z,102384.75
2022-12-18T19:23:17.211Z,102380.94
2022-12-18T19:26:28.008Z,102349.16
2022-12-18T19:29:34.487Z,102349.41
2022-12-18T19:32:40.590Z,102349.25
2022-12-18T19:35:44.334Z,102343.38
2022-12-18T19:38:49.012Z,102343.53
2022-12-18T19:41:52.957Z,102345.97
2022-12-18T19:44:59.466Z,102339.03
2022-12-18T19:48:04.548Z,102336.00
2022-12-18T19:51:10.283Z,102350.63
2022-12-18T19:54:16.993Z,102331.91
2022-12-18T19:57:21.532Z,102322.22
2022-12-18T20:00:26.599Z,102331.41
2022-12-18T20:03:32.753Z,102333.97
2022-12-18T20:06:46.536Z,102323.94
2022-12-18T20:09:57.125Z,102325.56
2022-12-18T20:13:06.371Z,102327.06
2022-12-18T20:16:12.406Z,102298.81
2022-12-18T20:19:16.291Z,102297.25
2022-12-18T20:22:20.088Z,102283.28
2022-12-18T20:25:23.776Z,102291.53
2022-12-18T20:28:27.595Z,102279.56
2022-12-18T20:31:32.866Z,102281.13
2022-12-18T20:34:36.802Z,102275.75
2022-12-18T20:37:43.825Z,102260.06
2022-12-18T20:40:52.524Z,102280.50
2022-12-18T20:43:56.223Z,102269.72
2022-12-18T20:47:04.942Z,102256.84
2022-12-18T20:50:12.608Z,102259.44
2022-12-18T20:53:16.319Z,102242.94
2022-12-18T20:56:23.076Z,102245.44
2022-12-18T20:59:27.083Z,102252.50
2022-12-18T21:02:32.362Z,102234.50
2022-12-18T21:05:36.303Z,102231.34
2022-12-18T21:08:41.505Z,102223.41
2022-12-18T21:12:02.762Z,102230.63
2022-12-18T21:15:09.454Z,102225.84
2022-12-18T21:18:14.585Z,102202.97
2022-12-18T21:21:21.903Z,102183.88
2022-12-18T21:24:32.608Z,102167.59
2022-12-18T21:27:36.760Z,102151.53
2022-12-18T21:30:40.965Z,102142.00
2022-12-18T21:33:46.118Z,102129.69
2022-12-18T21:36:51.941Z,102118.75
2022-12-18T21:39:55.690Z,102162.69
